createdAt,value
2015-12-24T00:00:05.995Z,19.3
2015-12-24T00:01:05.982Z,19.39
2015-12-24T00:02:06.016Z,19.31
2015-12-24T00:03:05.861Z,19.27
2015-12-24T00:04:05.834Z,19.39
2015-12-24T00:05:05.805Z,19.4
2015-12-24T00:06:05.777Z,19.44
2015-12-24T00:07:05.810Z,19.39
2015-12-24T00:08:05.716Z,19.4
2015-12-24T00:09:05.735Z,19.41
2015-12-24T00:10:05.675Z,19.44
2015-12-24T00:11:05.631Z,19.33
2015-12-24T00:12:05.603Z,19.27
2015-12-24T00:13:05.574Z,19.4
2015-12-24T00:14:05.546Z,19.29
2015-12-24T00:15:05.486Z,19.36
2015-12-24T00:16:05.472Z,19.31
2015-12-24T00:17:05.445Z,19.34
2015-12-24T00:18:05.432Z,19.3
2015-12-24T00:19:05.450Z,19.36
2015-12-24T00:20:05.375Z,19.31
2015-12-24T00:21:05.346Z,19.36
2015-12-24T00:22:05.318Z,19.31
2015-12-24T00:23:05.320Z,19.36
2015-12-24T00:24:05.276Z,19.31
2015-12-24T00:25:05.216Z,19.31
2015-12-24T00:26:05.204Z,19.26
2015-12-24T00:27:05.143Z,19.37
2015-12-24T00:28:05.131Z,19.34
2015-12-24T00:29:05.149Z,19.31
2015-12-24T00:30:05.090Z,19.27
2015-12-24T00:31:05.076Z,19.31
2015-12-24T00:32:05.001Z,19.36
2015-12-24T00:33:04.973Z,19.31
2015-12-24T00:34:04.976Z,19.34
2015-12-24T00:35:04.932Z,19.29
2015-12-24T00:36:04.888Z,19.31
2015-12-24T00:37:04.859Z,19.24
2015-12-24T00:38:04.846Z,19.21
2015-12-24T00:39:04.817Z,19.26
2015-12-24T00:40:04.773Z,19.27
2015-12-24T00:41:04.791Z,19.27
2015-12-24T00:42:04.748Z,19.3
2015-12-24T00:43:04.704Z,19.45
2015-12-24T00:44:04.721Z,19.51
2015-12-24T00:45:04.662Z,19.39
2015-12-24T00:46:04.602Z,19.41
2015-12-24T00:47:04.589Z,19.37
2015-12-24T00:48:04.545Z,19.31
2015-12-24T00:49:04.549Z,19.31
2015-12-24T00:50:04.520Z,19.29
2015-12-24T00:51:04.460Z,19.3
2015-12-24T00:52:04.431Z,19.22
2015-12-24T00:53:04.403Z,19.22
2015-12-24T00:54:04.374Z,19.22
2015-12-24T00:55:04.330Z,19.21
2015-12-24T00:56:04.317Z,19.26
2015-12-24T00:57:04.304Z,19.22
2015-12-24T00:58:04.260Z,19.24
2015-12-24T00:59:04.216Z,19.29
2015-12-24T01:00:04.203Z,19.24
2015-12-24T01:01:04.159Z,19.14
2015-12-24T01:02:04.209Z,19.27
2015-12-24T01:03:04.099Z,19.26
2015-12-24T01:04:04.070Z,19.21
2015-12-24T01:05:04.057Z,19.21
2015-12-24T01:06:04.107Z,19.27
2015-12-24T01:07:03.985Z,19.22
2015-12-24T01:08:03.941Z,19.15
2015-12-24T01:09:03.928Z,19.24
2015-12-24T01:10:03.914Z,19.18
2015-12-24T01:11:03.870Z,19.27
2015-12-24T01:12:03.873Z,19.29
2015-12-24T01:13:03.798Z,19.24
2015-12-24T01:14:03.786Z,19.21
2015-12-24T01:15:03.741Z,19.24
2015-12-24T01:16:03.744Z,19.24
2015-12-24T01:17:03.684Z,19.22
2015-12-24T01:18:03.686Z,19.11
2015-12-24T01:19:03.611Z,19.09
2015-12-24T01:20:03.599Z,19.16
2015-12-24T01:21:03.586Z,19.16
2015-12-24T01:22:23.697Z,19.18
2015-12-24T01:23:03.545Z,19.22
2015-12-24T01:24:03.485Z,19.14
2015-12-24T01:25:03.455Z,19.12
2015-12-24T01:26:03.443Z,19.21
2015-12-24T01:27:03.400Z,19.22
2015-12-24T01:28:03.496Z,19.21
2015-12-24T01:29:03.404Z,19.14
2015-12-24T01:30:03.345Z,19.24
2015-12-24T01:31:03.285Z,19.09
2015-12-24T01:32:03.100Z,19.12
2015-12-24T01:33:03.228Z,19.22
2015-12-24T01:34:03.200Z,19.18
2015-12-24T01:35:03.219Z,19.14
2015-12-24T01:36:03.157Z,19.15
2015-12-24T01:37:03.113Z,19.14
2015-12-24T01:38:03.085Z,19.15
2015-12-24T01:39:03.057Z,19.15
2015-12-24T01:40:03.028Z,19.15
2015-12-24T01:41:02.999Z,19.14
2015-12-24T01:42:02.987Z,19.15
2015-12-24T01:43:02.928Z,19.14
2015-12-24T01:44:02.899Z,19.21
2015-12-24T01:45:02.901Z,19.18
2015-12-24T01:46:02.857Z,19.14
2015-12-24T01:47:02.813Z,19.14
2015-12-24T01:48:02.801Z,19.15
2015-12-24T01:49:02.803Z,19.16
2015-12-24T01:50:02.713Z,19.08
2015-12-24T01:51:02.715Z,19.16
2015-12-24T01:52:02.687Z,19.12
2015-12-24T01:53:02.624Z,19
2015-12-24T01:54:02.611Z,19.04
2015-12-24T01:55:02.582Z,19.18
2015-12-24T01:56:02.554Z,19.02
2015-12-24T01:57:02.493Z,19.16
2015-12-24T01:58:02.872Z,19.09
2015-12-24T01:59:02.468Z,19.15
2015-12-24T02:00:02.409Z,19.12
2015-12-24T02:01:02.395Z,19.07
2015-12-24T02:02:02.632Z,19.15
2015-12-24T02:03:02.338Z,19.15
2015-12-24T02:04:02.310Z,19.19
2015-12-24T02:05:02.282Z,19.08
2015-12-24T02:06:02.284Z,19.14
2015-12-24T02:07:02.225Z,19.12
2015-12-24T02:08:02.181Z,19.09
2015-12-24T02:09:02.151Z,19.07
2015-12-24T02:10:02.139Z,19.14
2015-12-24T02:11:02.111Z,19.11
2015-12-24T02:12:02.066Z,19.02
2015-12-24T02:13:02.038Z,19.11
2015-12-24T02:14:02.026Z,19.14
2015-12-24T02:15:01.981Z,19.15
2015-12-24T02:16:01.936Z,19.04
2015-12-24T02:17:01.940Z,19.09
2015-12-24T02:18:01.912Z,19.07
2015-12-24T02:19:01.868Z,19.02
2015-12-24T02:20:01.839Z,19.12
2015-12-24T02:21:01.795Z,19.15
2015-12-24T02:22:01.766Z,19.04
2015-12-24T02:23:01.909Z,19.15
2015-12-24T02:24:01.739Z,19.04
2015-12-24T02:25:01.525Z,19
2015-12-24T02:26:01.652Z,19.19
2015-12-24T02:27:01.623Z,18.99
2015-12-24T02:28:01.626Z,19.12
2015-12-24T02:29:01.597Z,19.08
2015-12-24T02:30:01.538Z,19.02
2015-12-24T02:31:01.525Z,19.07
2015-12-24T02:32:01.480Z,19.11
2015-12-24T02:33:01.452Z,19.07
2015-12-24T02:34:01.456Z,18.99
2015-12-24T02:35:01.395Z,18.98
2015-12-24T02:36:01.367Z,19.02
2015-12-24T02:37:00.573Z,19.12
2015-12-24T02:38:01.295Z,19.04
2015-12-24T02:39:01.266Z,19.12
2015-12-24T02:40:01.253Z,19
2015-12-24T02:41:01.208Z,19
2015-12-24T02:42:01.180Z,19.02
2015-12-24T02:43:01.151Z,19.14
2015-12-24T02:44:00.983Z,18.96
2015-12-24T02:45:01.125Z,18.93
2015-12-24T02:46:01.066Z,19.11
2015-12-24T02:47:01.038Z,19
2015-12-24T02:48:01.041Z,18.98
2015-12-24T02:49:00.978Z,19
2015-12-24T02:50:00.933Z,18.98
2015-12-24T02:51:00.936Z,18.95
2015-12-24T02:52:00.891Z,18.92
2015-12-24T02:53:00.910Z,18.96
2015-12-24T02:54:00.819Z,18.92
2015-12-24T02:55:00.791Z,18.9
2015-12-24T02:56:00.762Z,18.89
2015-12-24T02:57:00.749Z,18.95
2015-12-24T02:58:00.705Z,18.99
2015-12-24T02:59:00.661Z,18.95
2015-12-24T03:00:00.648Z,18.98
2015-12-24T03:01:00.620Z,18.98
2015-12-24T03:02:00.653Z,18.98
2015-12-24T03:03:00.546Z,18.89
2015-12-24T03:04:00.518Z,18.95
2015-12-24T03:05:00.506Z,18.98
2015-12-24T03:06:00.523Z,18.96
2015-12-24T03:07:00.432Z,18.93
2015-12-24T03:08:00.420Z,18.92
2015-12-24T03:09:00.376Z,18.92
2015-12-24T03:10:00.347Z,18.9
2015-12-24T03:11:00.303Z,18.86
2015-12-24T03:12:00.275Z,18.89
2015-12-24T03:13:00.308Z,18.89
2015-12-24T03:14:00.233Z,18.89
2015-12-24T03:15:00.236Z,18.83
2015-12-24T03:16:00.207Z,18.89
2015-12-24T03:17:00.147Z,18.86
2015-12-24T03:18:00.134Z,18.86
2015-12-24T03:19:00.075Z,18.81
2015-12-24T03:20:00.062Z,18.88
2015-12-24T03:21:00.033Z,18.81
2015-12-24T03:22:00.005Z,18.89
2015-12-24T03:22:59.961Z,18.95
2015-12-24T03:23:59.933Z,18.83
2015-12-24T03:24:59.888Z,18.86
2015-12-24T03:25:59.938Z,18.93
2015-12-24T03:26:59.847Z,18.81
2015-12-24T03:27:59.818Z,18.88
2015-12-24T03:28:59.805Z,18.89
2015-12-24T03:29:59.761Z,18.95
2015-12-24T03:30:59.748Z,18.89
2015-12-24T03:31:59.688Z,18.86
2015-12-24T03:32:59.644Z,18.88
2015-12-24T03:33:59.631Z,18.89
2015-12-24T03:34:59.603Z,18.86
2015-12-24T03:35:59.558Z,18.9
2015-12-24T03:36:59.530Z,18.89
2015-12-24T03:37:59.517Z,18.89
2015-12-24T03:38:59.489Z,18.81
2015-12-24T03:39:59.445Z,18.81
2015-12-24T03:40:59.432Z,18.86
2015-12-24T03:41:59.403Z,18.83
2015-12-24T03:42:59.360Z,18.74
2015-12-24T03:43:59.316Z,18.81
2015-12-24T03:44:59.318Z,18.81
2015-12-24T03:45:59.274Z,18.84
2015-12-24T03:46:59.276Z,18.83
2015-12-24T03:47:59.202Z,18.86
2015-12-24T03:48:59.172Z,18.8
2015-12-24T03:49:59.160Z,18.74
2015-12-24T03:50:59.147Z,18.81
2015-12-24T03:51:59.085Z,18.77
2015-12-24T03:52:59.071Z,18.81
2015-12-24T03:53:59.027Z,18.84
2015-12-24T03:54:59.015Z,18.77
2015-12-24T03:55:58.970Z,18.84
2015-12-24T03:56:58.957Z,18.78
2015-12-24T03:57:58.929Z,18.73
2015-12-24T03:58:58.900Z,18.83
2015-12-24T03:59:58.840Z,18.74
2015-12-24T04:00:58.812Z,18.81
2015-12-24T04:01:58.798Z,18.77
2015-12-24T04:02:58.771Z,18.73
2015-12-24T04:03:58.743Z,18.74
2015-12-24T04:04:58.713Z,18.73
2015-12-24T04:05:58.670Z,18.81
2015-12-24T04:06:58.656Z,18.77
2015-12-24T04:07:58.596Z,18.75
2015-12-24T04:08:58.568Z,18.73
2015-12-24T04:09:58.540Z,18.71
2015-12-24T04:10:58.543Z,18.71
2015-12-24T04:11:58.499Z,18.6
2015-12-24T04:12:58.471Z,18.7
2015-12-24T04:13:58.442Z,18.73
2015-12-24T04:14:58.412Z,18.7
2015-12-24T04:15:58.385Z,18.66
2015-12-24T04:16:58.340Z,18.63
2015-12-24T04:17:58.312Z,18.66
2015-12-24T04:18:58.284Z,18.65
2015-12-24T04:19:58.255Z,18.63
2015-12-24T04:20:58.211Z,18.66
2015-12-24T04:21:58.182Z,18.66
2015-12-24T04:22:58.545Z,18.6
2015-12-24T04:23:58.157Z,18.63
2015-12-24T04:24:58.128Z,18.63
2015-12-24T04:25:58.068Z,18.63
2015-12-24T04:26:58.040Z,18.62
2015-12-24T04:27:58.026Z,18.63
2015-12-24T04:28:57.983Z,18.63
2015-12-24T04:29:57.939Z,18.63
2015-12-24T04:30:57.941Z,18.63
2015-12-24T04:31:57.912Z,18.62
2015-12-24T04:32:57.853Z,18.62
2015-12-24T04:33:57.840Z,18.65
2015-12-24T04:34:57.890Z,18.62
2015-12-24T04:35:57.783Z,18.55
2015-12-24T04:36:57.739Z,18.53
2015-12-24T04:37:57.710Z,18.62
2015-12-24T04:38:57.682Z,18.63
2015-12-24T04:39:57.669Z,18.6
2015-12-24T04:40:57.606Z,18.59
2015-12-24T04:41:57.578Z,18.59
2015-12-24T04:42:57.550Z,18.55
2015-12-24T04:43:57.536Z,18.56
2015-12-24T04:44:57.508Z,18.49
2015-12-24T04:45:57.480Z,18.58
2015-12-24T04:46:57.435Z,18.49
2015-12-24T04:47:57.407Z,18.49
2015-12-24T04:48:57.410Z,18.5
2015-12-24T04:49:57.365Z,18.59
2015-12-24T04:50:58.743Z,18.59
2015-12-24T04:51:57.324Z,18.58
2015-12-24T04:52:57.280Z,18.49
2015-12-24T04:53:57.236Z,18.45
2015-12-24T04:54:57.207Z,18.45
2015-12-24T04:55:57.163Z,18.52
2015-12-24T04:56:57.524Z,18.53
2015-12-24T04:57:57.105Z,18.45
2015-12-24T04:58:57.077Z,18.44
2015-12-24T04:59:57.065Z,18.55
2015-12-24T05:01:06.068Z,18.53
2015-12-24T05:01:56.977Z,18.45
2015-12-24T05:02:56.792Z,18.5
2015-12-24T05:03:56.935Z,18.53
2015-12-24T05:04:56.907Z,18.43
2015-12-24T05:05:56.957Z,18.53
2015-12-24T05:06:56.835Z,18.52
2015-12-24T05:07:56.821Z,18.49
2015-12-24T05:08:56.777Z,18.47
2015-12-24T05:09:56.749Z,18.53
2015-12-24T05:10:56.735Z,18.49
2015-12-24T05:11:56.691Z,18.49
2015-12-24T05:12:56.694Z,18.45
2015-12-24T05:14:09.416Z,18.43
2015-12-24T05:14:56.590Z,18.4
2015-12-24T05:15:56.562Z,18.49
2015-12-24T05:16:56.532Z,18.49
2015-12-24T05:17:56.348Z,18.4
2015-12-24T05:18:56.539Z,18.43
2015-12-24T05:19:56.448Z,18.44
2015-12-24T05:20:56.419Z,18.41
2015-12-24T05:21:56.376Z,18.44
2015-12-24T05:22:56.362Z,18.47
2015-12-24T05:23:56.334Z,18.52
2015-12-24T05:24:56.305Z,18.45
2015-12-24T05:25:56.261Z,18.4
2015-12-24T05:26:56.264Z,18.45
2015-12-24T05:27:56.188Z,18.43
2015-12-24T05:28:56.191Z,18.45
2015-12-24T05:29:56.145Z,18.4
2015-12-24T05:30:56.132Z,18.43
2015-12-24T05:31:56.071Z,18.45
2015-12-24T05:32:56.059Z,18.44
2015-12-24T05:33:56.030Z,18.47
2015-12-24T05:34:55.986Z,18.45
2015-12-24T05:35:55.957Z,18.43
2015-12-24T05:36:55.929Z,18.44
2015-12-24T05:37:55.901Z,18.43
2015-12-24T05:38:55.872Z,18.45
2015-12-24T05:39:55.843Z,18.38
2015-12-24T05:40:55.800Z,18.44
2015-12-24T05:41:55.771Z,18.4
2015-12-24T05:42:55.742Z,18.41
2015-12-24T05:43:55.714Z,18.35
2015-12-24T05:44:55.700Z,18.43
2015-12-24T05:45:55.672Z,18.45
2015-12-24T05:46:55.629Z,18.43
2015-12-24T05:47:55.600Z,18.37
2015-12-24T05:48:55.587Z,18.41
2015-12-24T05:49:55.542Z,18.43
2015-12-24T05:50:55.514Z,18.4
2015-12-24T05:51:55.470Z,18.44
2015-12-24T05:52:55.457Z,18.4
2015-12-24T05:53:55.397Z,18.43
2015-12-24T05:54:55.416Z,18.44
2015-12-24T05:55:55.387Z,18.41
2015-12-24T05:56:55.344Z,18.31
2015-12-24T05:57:55.284Z,18.35
2015-12-24T05:58:55.255Z,18.35
2015-12-24T05:59:55.211Z,18.43
2015-12-24T06:00:55.244Z,18.41
2015-12-24T06:01:55.185Z,18.44
2015-12-24T06:02:55.141Z,18.4
2015-12-24T06:03:55.113Z,18.37
2015-12-24T06:04:55.069Z,18.4
2015-12-24T06:05:55.119Z,18.38
2015-12-24T06:06:55.012Z,18.37
2015-12-24T06:07:54.983Z,18.4
2015-12-24T06:08:54.955Z,18.4
2015-12-24T06:09:54.926Z,18.43
2015-12-24T06:10:54.898Z,18.45
2015-12-24T06:11:54.869Z,18.44
2015-12-24T06:12:54.825Z,18.41
2015-12-24T06:13:54.811Z,18.44
2015-12-24T06:14:54.814Z,18.41
2015-12-24T06:15:54.755Z,18.45
2015-12-24T06:16:54.742Z,18.47
2015-12-24T06:17:54.713Z,18.34
2015-12-24T06:18:54.666Z,18.43
2015-12-24T06:19:54.622Z,18.41
2015-12-24T06:20:54.594Z,18.43
2015-12-24T06:21:54.565Z,18.41
2015-12-24T06:22:54.537Z,18.38
2015-12-24T06:23:54.493Z,18.43
2015-12-24T06:24:54.464Z,18.53
2015-12-24T06:25:54.435Z,18.41
2015-12-24T06:26:54.424Z,18.4
2015-12-24T06:27:54.394Z,18.45
2015-12-24T06:28:54.335Z,18.41
2015-12-24T06:29:54.322Z,18.47
2015-12-24T06:30:54.294Z,18.38
2015-12-24T06:31:54.265Z,18.43
2015-12-24T06:32:54.236Z,18.4
2015-12-24T06:33:54.223Z,18.49
2015-12-24T06:34:54.149Z,18.4
2015-12-24T06:35:54.135Z,18.45
2015-12-24T06:36:54.122Z,18.4
2015-12-24T06:37:54.093Z,18.4
2015-12-24T06:38:54.035Z,18.45
2015-12-24T06:39:54.021Z,18.45
2015-12-24T06:40:53.977Z,18.44
2015-12-24T06:41:53.965Z,18.5
2015-12-24T06:42:53.920Z,18.41
2015-12-24T06:43:53.891Z,18.5
2015-12-24T06:44:53.862Z,18.55
2015-12-24T06:45:53.850Z,18.49
2015-12-24T06:46:53.806Z,18.49
2015-12-24T06:47:53.777Z,18.49
2015-12-24T06:48:53.764Z,18.45
2015-12-24T06:49:53.720Z,18.45
2015-12-24T06:50:53.692Z,18.47
2015-12-24T06:51:53.648Z,18.47
2015-12-24T06:52:53.635Z,18.41
2015-12-24T06:53:53.607Z,18.45
2015-12-24T06:54:53.579Z,18.47
2015-12-24T06:55:53.534Z,18.53
2015-12-24T06:56:53.506Z,18.45
2015-12-24T06:57:53.493Z,18.49
2015-12-24T06:58:53.495Z,18.45
2015-12-24T06:59:53.404Z,18.47
2015-12-24T07:00:53.376Z,18.47
2015-12-24T07:01:53.379Z,18.55
2015-12-24T07:02:53.334Z,18.47
2015-12-24T07:03:53.368Z,18.49
2015-12-24T07:04:53.306Z,18.47
2015-12-24T07:05:53.278Z,18.53
2015-12-24T07:06:53.217Z,18.53
2015-12-24T07:07:53.173Z,18.49
2015-12-24T07:08:53.129Z,18.49
2015-12-24T07:09:53.117Z,18.5
2015-12-24T07:10:53.087Z,18.55
2015-12-24T07:11:53.044Z,18.55
2015-12-24T07:12:53.014Z,18.47
2015-12-24T07:13:52.987Z,18.58
2015-12-24T07:14:52.974Z,18.45
2015-12-24T07:15:52.945Z,18.53
2015-12-24T07:16:52.917Z,18.43
2015-12-24T07:17:52.857Z,18.52
2015-12-24T07:18:52.828Z,18.52
2015-12-24T07:19:52.816Z,18.45
2015-12-24T07:20:52.772Z,18.49
2015-12-24T07:21:52.743Z,18.49
2015-12-24T07:22:52.714Z,18.49
2015-12-24T07:23:52.687Z,18.45
2015-12-24T07:24:52.705Z,18.47
2015-12-24T07:25:52.628Z,18.45
2015-12-24T07:26:52.600Z,18.47
2015-12-24T07:27:52.556Z,18.52
2015-12-24T07:28:52.543Z,18.5
2015-12-24T07:29:52.500Z,18.5
2015-12-24T07:30:52.517Z,18.49
2015-12-24T07:31:52.442Z,18.5
2015-12-24T07:32:52.398Z,18.55
2015-12-24T07:33:52.385Z,18.56
2015-12-24T07:34:52.357Z,18.45
2015-12-24T07:35:52.344Z,18.47
2015-12-24T07:36:52.315Z,18.5
2015-12-24T07:37:52.286Z,18.47
2015-12-24T07:38:52.243Z,18.58
2015-12-24T07:39:52.214Z,18.58
2015-12-24T07:40:52.169Z,18.49
2015-12-24T07:41:52.158Z,18.58
2015-12-24T07:42:52.129Z,18.58
2015-12-24T07:43:52.085Z,18.59
2015-12-24T07:44:52.041Z,18.53
2015-12-24T07:45:52.074Z,18.6
2015-12-24T07:46:51.984Z,18.58
2015-12-24T07:47:52.002Z,18.58
2015-12-24T07:48:51.927Z,18.44
2015-12-24T07:49:51.930Z,18.52
2015-12-24T07:50:51.886Z,18.52
2015-12-24T07:51:51.872Z,18.47
2015-12-24T07:52:51.810Z,18.53
2015-12-24T07:53:51.766Z,18.5
2015-12-24T07:54:51.753Z,18.6
2015-12-24T07:55:51.772Z,18.53
2015-12-24T07:56:51.868Z,18.55
2015-12-24T07:57:51.640Z,18.45
2015-12-24T07:58:51.597Z,18.49
2015-12-24T07:59:51.460Z,18.5
2015-12-24T08:00:51.573Z,18.52
2015-12-24T08:01:51.451Z,18.53
2015-12-24T08:02:51.480Z,18.5
2015-12-24T08:03:51.415Z,18.5
2015-12-24T08:04:51.413Z,18.53
2015-12-24T08:05:51.363Z,18.53
2015-12-24T08:06:51.283Z,18.5
2015-12-24T08:07:51.284Z,18.58
2015-12-24T08:08:51.268Z,18.62
2015-12-24T08:09:51.223Z,18.5
2015-12-24T08:10:51.146Z,18.6
2015-12-24T08:11:51.116Z,18.6
2015-12-24T08:12:51.148Z,18.62
2015-12-24T08:13:51.057Z,18.6
2015-12-24T08:14:51.027Z,18.62
2015-12-24T08:15:51.046Z,18.55
2015-12-24T08:16:51.297Z,18.59
2015-12-24T08:17:51.066Z,18.59
2015-12-24T08:18:50.958Z,18.53
2015-12-24T08:19:50.883Z,18.55
2015-12-24T08:20:50.854Z,18.5
2015-12-24T08:21:50.809Z,18.49
2015-12-24T08:22:50.781Z,18.5
2015-12-24T08:23:50.753Z,18.55
2015-12-24T08:24:50.740Z,18.56
2015-12-24T08:25:50.695Z,18.56
2015-12-24T08:26:50.652Z,18.59
2015-12-24T08:27:50.670Z,18.56
2015-12-24T08:28:50.642Z,18.52
2015-12-24T08:29:50.597Z,18.55
2015-12-24T08:30:50.537Z,18.55
2015-12-24T08:31:50.508Z,18.55
2015-12-24T08:32:50.496Z,18.6
2015-12-24T08:33:50.467Z,18.6
2015-12-24T08:34:50.423Z,18.63
2015-12-24T08:35:50.395Z,18.59
2015-12-24T08:36:50.381Z,18.62
2015-12-24T08:37:50.334Z,18.55
2015-12-24T08:38:50.291Z,18.58
2015-12-24T08:39:50.262Z,18.63
2015-12-24T08:40:50.234Z,18.68
2015-12-24T08:41:50.378Z,18.6
2015-12-24T08:42:50.286Z,18.66
2015-12-24T08:43:50.288Z,18.65
2015-12-24T08:44:50.229Z,18.68
2015-12-24T08:45:50.201Z,18.66
2015-12-24T08:46:50.188Z,18.65
2015-12-24T08:47:49.347Z,18.59
2015-12-24T08:48:50.005Z,18.63
2015-12-24T08:49:49.992Z,18.62
2015-12-24T08:50:49.949Z,18.58
2015-12-24T08:51:49.904Z,18.68
2015-12-24T08:52:49.875Z,18.6
2015-12-24T08:53:49.864Z,18.62
2015-12-24T08:54:49.819Z,18.59
2015-12-24T08:55:49.791Z,18.65
2015-12-24T08:56:49.762Z,18.68
2015-12-24T08:57:49.733Z,18.65
2015-12-24T08:58:49.752Z,18.66
2015-12-24T08:59:49.974Z,18.63
2015-12-24T09:00:49.632Z,18.62
2015-12-24T09:01:49.619Z,18.62
2015-12-24T09:02:49.591Z,18.63
2015-12-24T09:03:49.531Z,18.62
2015-12-24T09:04:49.502Z,18.62
2015-12-24T09:05:49.474Z,18.74
2015-12-24T09:06:49.493Z,18.71
2015-12-24T09:07:49.416Z,18.68
2015-12-24T09:08:49.404Z,18.77
2015-12-24T09:09:49.360Z,18.65
2015-12-24T09:10:49.331Z,18.71
2015-12-24T09:11:49.287Z,18.74
2015-12-24T09:12:49.274Z,18.77
2015-12-24T09:13:49.262Z,18.73
2015-12-24T09:14:49.232Z,18.7
2015-12-24T09:15:49.485Z,18.71
2015-12-24T09:16:49.146Z,18.75
2015-12-24T09:17:49.132Z,18.62
2015-12-24T09:18:49.416Z,18.63
2015-12-24T09:19:49.075Z,18.77
2015-12-24T09:20:49.031Z,18.65
2015-12-24T09:21:48.987Z,18.63
2015-12-24T09:22:48.974Z,18.66
2015-12-24T09:23:49.102Z,18.66
2015-12-24T09:24:48.901Z,18.63
2015-12-24T09:25:48.888Z,18.6
2015-12-24T09:26:48.844Z,18.62
2015-12-24T09:27:48.831Z,18.66
2015-12-24T09:28:48.818Z,18.66
2015-12-24T09:29:48.756Z,18.71
2015-12-24T09:30:48.712Z,18.63
2015-12-24T09:31:48.699Z,18.59
2015-12-24T09:32:48.654Z,18.7
2015-12-24T09:33:48.626Z,18.71
2015-12-24T09:39:50.081Z,19.48
2015-12-24T09:40:50.036Z,19.64
2015-12-24T09:41:50.023Z,19.94
2015-12-24T09:42:49.964Z,20.04
2015-12-24T09:43:49.950Z,20.21
2015-12-24T09:44:49.954Z,20.13
2015-12-24T09:45:49.893Z,20.24
2015-12-24T09:46:49.850Z,20.26
2015-12-24T09:47:49.836Z,20.28
2015-12-24T09:48:50.151Z,20.19
2015-12-24T09:49:49.764Z,20.11
2015-12-24T09:50:49.736Z,20.02
2015-12-24T09:51:49.739Z,19.96
2015-12-24T09:52:49.678Z,19.79
2015-12-24T09:53:49.633Z,19.64
2015-12-24T09:54:49.621Z,19.58
2015-12-24T09:55:49.577Z,19.49
2015-12-24T09:56:49.892Z,19.37
2015-12-24T09:57:49.567Z,19.33
2015-12-24T09:58:49.492Z,19.24
2015-12-24T09:59:49.463Z,19.24
2015-12-24T10:00:49.482Z,19.22
2015-12-24T10:01:49.422Z,19.24
2015-12-24T10:02:49.424Z,19.14
2015-12-24T10:03:49.365Z,19.19
2015-12-24T10:04:49.320Z,19.18
2015-12-24T10:05:49.308Z,19.19
2015-12-24T10:06:49.295Z,19.12
2015-12-24T10:07:49.250Z,19.15
2015-12-24T10:08:49.270Z,19.15
2015-12-24T10:09:49.178Z,19.11
2015-12-24T10:10:49.134Z,19.09
2015-12-24T10:11:49.106Z,19.16
2015-12-24T10:12:48.921Z,19.14
2015-12-24T10:13:49.330Z,19.12
2015-12-24T10:14:49.223Z,19.14
2015-12-24T10:15:49.100Z,19.27
2015-12-24T10:16:49.088Z,19.33
2015-12-24T10:17:49.044Z,19.33
2015-12-24T10:18:49.016Z,19.22
2015-12-24T10:19:48.971Z,19.24
2015-12-24T10:20:49.349Z,19.27
2015-12-24T10:21:48.943Z,19.26
2015-12-24T10:22:49.839Z,19.16
2015-12-24T10:23:48.402Z,19.18
2015-12-24T10:24:48.810Z,19.18
2015-12-24T10:25:48.907Z,19.22
2015-12-24T10:26:48.800Z,19.12
2015-12-24T10:27:48.787Z,19.22
2015-12-24T10:28:49.212Z,19.26
2015-12-24T10:29:48.682Z,19.21
2015-12-24T10:30:48.717Z,19.19
2015-12-24T10:31:48.891Z,19.15
2015-12-24T10:32:48.629Z,19.14
2015-12-24T10:33:48.647Z,19.04
2015-12-24T10:34:48.479Z,19.12
2015-12-24T10:35:48.434Z,19.19
2015-12-24T10:36:48.374Z,19.16
2015-12-24T10:37:48.565Z,19.18
2015-12-24T10:38:48.302Z,19.15
2015-12-24T10:39:48.273Z,19.18
2015-12-24T10:40:48.245Z,19.12
2015-12-24T10:41:48.263Z,19.15
2015-12-24T10:42:48.391Z,19.02
2015-12-24T10:43:48.206Z,19.18
2015-12-24T10:44:48.334Z,19.12
2015-12-24T10:45:48.180Z,19.15
2015-12-24T10:46:48.167Z,19.15
2015-12-24T10:47:48.389Z,19.08
2015-12-24T10:48:48.376Z,19.15
2015-12-24T10:49:47.973Z,18.99
2015-12-24T10:50:48.412Z,19.07
2015-12-24T10:51:47.681Z,19.16
2015-12-24T10:52:48.074Z,19.22
2015-12-24T10:53:47.968Z,18.98
2015-12-24T10:54:47.970Z,19.15
2015-12-24T10:55:48.051Z,19.11
2015-12-24T10:56:47.945Z,19.12
2015-12-24T10:57:47.744Z,19.02
2015-12-24T10:58:47.934Z,19.04
2015-12-24T10:59:47.719Z,19.07
2015-12-24T11:00:47.767Z,19
2015-12-24T11:01:48.068Z,19.08
2015-12-24T11:02:47.727Z,19.04
2015-12-24T11:03:47.698Z,18.99
2015-12-24T11:04:47.529Z,19.02
2015-12-24T11:05:47.626Z,19.15
2015-12-24T11:06:47.534Z,19.24
2015-12-24T11:07:47.569Z,19.27
2015-12-24T11:08:47.572Z,19.24
2015-12-24T11:09:47.403Z,19.29
2015-12-24T11:10:47.483Z,19.27
2015-12-24T11:11:47.517Z,19.22
2015-12-24T11:12:47.423Z,19.27
2015-12-24T11:13:47.378Z,19.36
2015-12-24T11:14:47.225Z,19.45
2015-12-24T11:15:47.416Z,19.49
2015-12-24T11:16:47.262Z,19.59
2015-12-24T11:17:47.171Z,19.69
2015-12-24T11:18:47.127Z,19.88
2015-12-24T11:19:47.115Z,19.95
2015-12-24T11:20:47.397Z,19.99
2015-12-24T11:21:47.323Z,19.99
2015-12-24T11:22:46.983Z,20.13
2015-12-24T11:23:47.047Z,20.13
2015-12-24T11:24:47.159Z,20.07
2015-12-24T11:25:47.083Z,20.11
2015-12-24T11:26:47.212Z,20.29
2015-12-24T11:27:46.871Z,20.29
2015-12-24T11:28:46.811Z,20.34
2015-12-24T11:29:46.938Z,20.34
2015-12-24T11:30:46.973Z,20.41
2015-12-24T11:31:46.819Z,20.47
2015-12-24T11:32:46.666Z,20.52
2015-12-24T11:33:46.700Z,20.67
2015-12-24T11:34:46.671Z,20.65
2015-12-24T11:35:46.596Z,20.66
2015-12-24T11:36:46.551Z,20.66
2015-12-24T11:37:46.836Z,20.63
2015-12-24T11:38:46.494Z,20.63
2015-12-24T11:39:46.449Z,20.62
2015-12-24T11:40:46.421Z,20.59
2015-12-24T11:41:46.393Z,20.65
2015-12-24T11:42:46.365Z,20.62
2015-12-24T11:43:46.336Z,20.63
2015-12-24T11:44:46.308Z,20.65
2015-12-24T11:45:49.279Z,20.77
2015-12-24T11:47:12.422Z,20.74
2015-12-24T11:47:46.379Z,20.72
2015-12-24T11:48:47.443Z,20.74
2015-12-24T11:49:46.321Z,20.8
2015-12-24T11:50:46.371Z,20.8
2015-12-24T11:51:46.201Z,20.8
2015-12-24T11:52:46.548Z,20.77
2015-12-24T11:53:46.098Z,20.78
2015-12-24T11:54:46.351Z,20.78
2015-12-24T11:55:46.009Z,20.81
2015-12-24T11:56:45.965Z,20.81
2015-12-24T11:57:45.999Z,20.81
2015-12-24T11:58:45.892Z,20.77
2015-12-24T11:59:45.942Z,20.84
2015-12-24T12:00:45.882Z,20.85
2015-12-24T12:01:45.806Z,20.85
2015-12-24T12:02:45.778Z,20.8
2015-12-24T12:03:45.750Z,20.78
2015-12-24T12:04:45.722Z,20.85
2015-12-24T12:05:45.708Z,20.78
2015-12-24T12:06:45.664Z,20.8
2015-12-24T12:07:45.635Z,20.82
2015-12-24T12:08:48.622Z,20.78
2015-12-24T12:09:45.578Z,20.69
2015-12-24T12:10:45.533Z,20.74
2015-12-24T12:11:45.505Z,20.74
2015-12-24T12:12:45.523Z,20.7
2015-12-24T12:13:45.464Z,20.63
2015-12-24T12:14:51.452Z,20.6
2015-12-24T12:15:45.392Z,20.75
2015-12-24T12:16:45.347Z,20.81
2015-12-24T12:17:46.241Z,20.7
2015-12-24T12:18:45.619Z,20.69
2015-12-24T12:19:45.558Z,20.56
2015-12-24T12:20:45.561Z,20.47
2015-12-24T12:22:29.425Z,20.4
2015-12-24T12:22:45.347Z,20.34
2015-12-24T12:23:48.756Z,20.26
2015-12-24T12:24:44.868Z,20.09
2015-12-24T12:25:45.293Z,20.21
2015-12-24T12:26:45.234Z,20.28
2015-12-24T12:27:48.221Z,20.32
2015-12-24T12:28:45.176Z,20.41
2015-12-24T12:29:48.164Z,20.55
2015-12-24T12:30:45.167Z,20.51
2015-12-24T12:31:45.184Z,20.59
2015-12-24T12:32:45.063Z,20.65
2015-12-24T12:33:45.018Z,20.75
2015-12-24T12:34:45.021Z,20.7
2015-12-24T12:35:45.212Z,20.74
2015-12-24T12:36:47.964Z,20.7
2015-12-24T12:37:48.420Z,20.77
2015-12-24T12:38:47.891Z,20.8
2015-12-24T12:39:44.879Z,20.77
2015-12-24T12:40:44.819Z,20.82
2015-12-24T12:41:44.772Z,20.75
2015-12-24T12:42:44.759Z,20.82
2015-12-24T12:43:44.793Z,20.85
2015-12-24T12:44:44.702Z,20.8
2015-12-24T12:45:44.970Z,20.81
2015-12-24T12:46:44.738Z,20.85
2015-12-24T12:47:44.789Z,20.78
2015-12-24T12:48:44.681Z,20.77
2015-12-24T12:49:44.559Z,20.84
2015-12-24T12:50:44.718Z,20.88
2015-12-24T12:51:44.830Z,20.85
2015-12-24T12:52:44.599Z,20.84
2015-12-24T12:53:44.477Z,20.96
2015-12-24T12:54:44.620Z,21.02
2015-12-24T12:55:44.670Z,21.02
2015-12-24T12:56:44.407Z,21.07
2015-12-24T12:57:44.456Z,21.02
2015-12-24T12:58:44.678Z,20.96
2015-12-24T12:59:44.383Z,20.9